Time;durP1;ratioP1;P1;durP2;ratioP2;P2;SDS_P1;SDS_P2;PMS_P1;PMS_P2;Temp;Humidity;BMP_temperature;BMP_pressure;BME280_temperature;BME280_humidity;BME280_pressure;Samples;Min_cycle;Max_cycle;Signal;HPM_P1;HPM_P2
2023/06/20 00:01:03;;;;;;;21.50;15.23;;;;;;;21.65;74.25;100994.41;5307048;28;20036;-73
2023/06/20 00:03:34;;;;;;;19.30;16.37;;;;;;;21.57;74.41;100985.16;5306268;28;20040;-74
2023/06/20 00:06:05;;;;;;;17.73;15.37;;;;;;;21.57;74.59;100985.16;5306747;28;20442;-73
2023/06/20 00:08:37;;;;;;;15.90;14.20;;;;;;;21.48;75.51;100981.25;5306692;28;20032;-74
2023/06/20 00:11:08;;;;;;;15.23;13.70;;;;;;;21.60;74.08;100979.69;5306891;28;20384;-74
2023/06/20 00:13:42;;;;;;;17.03;14.17;;;;;;;21.53;76.10;100983.63;5306800;28;20024;-73
2023/06/20 00:16:14;;;;;;;15.48;13.98;;;;;;;21.67;73.79;100984.56;5306527;28;20111;-74
2023/06/20 00:18:45;;;;;;;15.70;14.20;;;;;;;21.52;74.68;100980.09;5306559;28;20559;-74
2023/06/20 00:21:19;;;;;;;15.40;13.82;;;;;;;21.81;74.44;100972.31;5306196;28;20040;-74
2023/06/20 00:23:51;;;;;;;14.32;12.80;;;;;;;21.51;73.55;100969.59;5306130;28;20028;-73
2023/06/20 00:26:23;;;;;;;14.88;13.48;;;;;;;21.54;74.34;100977.38;5288622;28;20112;-74
2023/06/20 00:28:54;;;;;;;15.33;13.37;;;;;;;21.57;75.98;100971.91;5288339;28;20115;-73
2023/06/20 00:31:25;;;;;;;16.03;14.37;;;;;;;21.66;72.96;100974.03;5306260;28;20105;-74
2023/06/20 00:33:57;;;;;;;13.63;12.33;;;;;;;21.59;73.27;100975.31;5306348;28;20036;-73
2023/06/20 00:36:28;;;;;;;14.30;12.80;;;;;;;21.34;73.81;100974.00;5306312;28;20032;-73
2023/06/20 00:39:00;;;;;;;16.00;13.47;;;;;;;21.47;72.97;100968.88;5288205;28;20031;-73
2023/06/20 00:41:31;;;;;;;17.03;13.50;;;;;;;21.51;73.30;100970.47;5306144;28;20032;-73
2023/06/20 00:44:03;;;;;;;14.70;12.90;;;;;;;21.55;73.10;100966.69;5305955;28;20067;-73
2023/06/20 00:46:38;;;;;;;16.58;13.90;;;;;;;21.49;71.78;100962.59;5305823;28;20093;-73
2023/06/20 00:49:10;;;;;;;14.57;13.05;;;;;;;21.42;72.65;100973.59;5306084;28;20036;-73
2023/06/20 00:51:41;;;;;;;;;;;;;;;21.62;70.42;100967.19;5306047;28;20024;-73
2023/06/20 00:54:13;;;;;;;16.20;13.00;;;;;;;21.18;72.42;100966.03;5305362;28;19912;-73
2023/06/20 00:56:45;;;;;;;15.18;13.68;;;;;;;21.22;72.50;100966.72;5305581;28;20153;-73
2023/06/20 00:59:16;;;;;;;13.87;12.50;;;;;;;21.10;73.41;100965.59;5305802;28;20424;-72
2023/06/20 01:01:48;;;;;;;17.27;12.30;;;;;;;21.05;73.40;100951.75;5305820;28;20040;-72
2023/06/20 01:04:20;;;;;;;14.43;12.93;;;;;;;21.01;73.36;100950.19;5305598;28;20046;-72
2023/06/20 01:07:26;;;;;;;14.55;12.43;;;;;;;21.11;73.50;100949.59;5305636;28;20036;-72
2023/06/20 01:10:07;;;;;;;13.50;12.10;;;;;;;21.02;73.94;100943.94;5305401;28;20062;-73
2023/06/20 01:12:50;;;;;;;13.68;12.27;;;;;;;20.98;74.84;100947.69;5245972;28;20037;-73
2023/06/20 01:15:33;;;;;;;14.30;12.90;;;;;;;20.82;73.93;100948.53;5244120;28;20075;-72
2023/06/20 01:19:02;;;;;;;15.85;13.98;;;;;;;21.04;72.90;100953.53;5263396;28;20021;-73
2023/06/20 01:21:37;;;;;;;16.20;12.48;;;;;;;21.06;73.24;100949.00;5177106;28;20035;-72
2023/06/20 01:24:31;;;;;;;16.13;13.32;;;;;;;20.87;73.02;100950.94;5282666;28;20412;-73
2023/06/20 01:27:15;;;;;;;18.35;15.23;;;;;;;20.91;74.04;100950.69;5284582;28;20376;-72
2023/06/20 01:30:12;;;;;;;15.43;12.80;;;;;;;20.99;73.39;100949.41;5284055;28;20028;-73
2023/06/20 01:32:46;;;;;;;14.55;13.15;;;;;;;20.75;73.01;100940.06;5257913;28;20401;-73
2023/06/20 01:35:23;;;;;;;14.35;12.90;;;;;;;20.88;74.21;100936.72;5262683;28;20086;-74
2023/06/20 01:38:00;;;;;;;16.15;13.00;;;;;;;20.87;74.48;100941.19;5262660;28;20039;-74
2023/06/20 01:40:34;;;;;;;13.48;12.15;;;;;;;20.74;72.71;100933.03;5263267;28;20033;-73
2023/06/20 01:43:07;;;;;;;14.65;13.15;;;;;;;20.68;74.07;100928.06;5263138;28;20033;-74
2023/06/20 01:45:41;;;;;;;14.40;12.73;;;;;;;20.72;73.75;100929.63;5263148;28;20044;-74
2023/06/20 01:48:14;;;;;;;15.13;13.15;;;;;;;20.79;72.84;100921.34;5262771;28;20029;-73
2023/06/20 01:50:48;;;;;;;16.75;12.98;;;;;;;20.63;73.60;100930.06;5262719;28;20029;-74
2023/06/20 01:53:21;;;;;;;14.20;12.77;;;;;;;20.63;73.78;100923.91;5262376;28;20151;-73
2023/06/20 01:55:53;;;;;;;14.88;12.75;;;;;;;20.64;72.90;100917.69;5262818;28;20094;-73
2023/06/20 01:58:25;;;;;;;;;;;;;;;20.90;71.28;100935.72;5263393;28;20048;-72
2023/06/20 02:00:57;;;;;;;20.53;12.73;;;;;;;20.65;72.63;100927.38;5244847;28;19917;-73
2023/06/20 02:03:31;;;;;;;14.68;12.27;;;;;;;20.69;72.35;100907.75;5244677;28;20377;-73
2023/06/20 02:06:03;;;;;;;17.40;12.10;;;;;;;20.68;72.50;100911.31;5262923;28;20017;-74
2023/06/20 02:08:37;;;;;;;12.98;11.52;;;;;;;20.80;71.44;100904.50;5266363;28;20036;-73
2023/06/20 02:11:09;;;;;;;16.40;12.55;;;;;;;20.66;71.92;100914.03;5262821;28;20029;-73
2023/06/20 02:13:40;;;;;;;12.85;11.65;;;;;;;20.51;73.16;100914.81;5244764;28;20083;-73
2023/06/20 02:16:12;;;;;;;16.43;12.40;;;;;;;20.57;71.93;100915.34;5262326;28;20061;-73
2023/06/20 02:18:44;;;;;;;13.35;11.98;;;;;;;20.77;71.62;100913.47;5262559;28;20418;-73
2023/06/20 02:21:22;;;;;;;13.77;12.30;;;;;;;20.67;71.58;100907.81;5262501;28;20036;-73
2023/06/20 02:23:54;;;;;;;14.38;12.38;;;;;;;20.56;70.95;100905.69;5261902;28;20024;-73
2023/06/20 02:26:31;;;;;;;13.88;12.20;;;;;;;20.50;72.10;100908.66;5244302;28;20469;-73
2023/06/20 02:29:06;;;;;;;11.93;10.73;;;;;;;20.45;72.07;100912.47;5262519;28;20453;-73
2023/06/20 02:31:43;;;;;;;14.88;12.52;;;;;;;20.58;71.81;100918.88;5276052;28;20091;-73
2023/06/20 02:34:18;;;;;;;13.38;11.98;;;;;;;20.70;72.31;100910.28;5283283;28;20050;-73
2023/06/20 02:36:53;;;;;;;13.90;11.88;;;;;;;20.48;72.27;100915.84;5282994;28;20457;-74
2023/06/20 02:39:25;;;;;;;13.57;10.77;;;;;;;20.60;72.05;100916.97;5265289;28;20021;-73
2023/06/20 02:41:58;;;;;;;14.30;12.38;;;;;;;20.56;70.60;100926.03;5283153;28;20040;-73
2023/06/20 02:44:29;;;;;;;13.23;11.38;;;;;;;20.64;72.15;100917.69;5283059;28;20041;-73
2023/06/20 02:47:38;;;;;;;15.13;11.40;;;;;;;20.49;70.56;100924.63;5282926;28;20033;-73
2023/06/20 02:50:29;;;;;;;15.43;11.55;;;;;;;20.44;71.18;100913.44;5283020;28;20028;-73
2023/06/20 02:53:13;;;;;;;13.27;11.57;;;;;;;20.50;71.05;100915.75;5282951;28;20029;-73
2023/06/20 02:55:50;;;;;;;11.55;10.32;;;;;;;20.48;70.45;100913.19;5282498;28;20116;-73
2023/06/20 02:58:25;;;;;;;11.77;10.60;;;;;;;20.19;72.02;100917.34;5282979;28;20365;-74
2023/06/20 03:01:00;;;;;;;12.43;11.13;;;;;;;20.43;70.71;100919.66;5282837;28;20144;-74
2023/06/20 03:03:40;;;;;;;15.95;12.15;;;;;;;20.14;70.61;100916.72;5290286;28;20470;-73
2023/06/20 03:06:14;;;;;;;12.45;11.07;;;;;;;20.08;71.69;100914.41;5303770;28;20028;-73
2023/06/20 03:08:49;;;;;;;11.50;10.30;;;;;;;20.15;71.92;100908.69;5304187;28;20034;-72
2023/06/20 03:11:21;;;;;;;13.82;11.32;;;;;;;20.05;71.91;100910.09;5303976;28;20074;-73
2023/06/20 03:13:53;;;;;;;12.52;10.60;;;;;;;19.93;73.58;100902.78;5303782;28;20467;-73
2023/06/20 03:16:26;;;;;;;12.60;11.30;;;;;;;19.97;72.63;100896.41;5304046;28;20107;-74
2023/06/20 03:18:58;;;;;;;13.32;11.25;;;;;;;19.93;73.08;100897.47;5286000;28;20100;-73
2023/06/20 03:21:29;;;;;;;11.60;10.45;;;;;;;19.76;73.64;100893.06;5305793;28;20032;-73
2023/06/20 03:24:00;;;;;;;13.47;11.27;;;;;;;19.90;72.81;100895.88;5303582;28;20055;-72
2023/06/20 03:26:33;;;;;;;13.03;11.00;;;;;;;19.75;73.57;100902.72;5304060;28;20115;-73
2023/06/20 03:29:05;;;;;;;12.60;11.30;;;;;;;19.72;73.57;100905.50;5303589;28;20024;-73
2023/06/20 03:31:36;;;;;;;12.10;10.93;;;;;;;19.55;73.58;100910.78;5303574;28;20429;-73
2023/06/20 03:34:08;;;;;;;15.07;11.10;;;;;;;19.62;74.02;100915.69;5285574;28;20032;-73
2023/06/20 03:36:40;;;;;;;13.18;11.82;;;;;;;19.49;73.45;100906.66;5285433;28;20040;-73
2023/06/20 03:39:11;;;;;;;12.63;11.43;;;;;;;19.49;74.74;100914.56;5305976;28;20070;-73
2023/06/20 03:41:42;;;;;;;15.30;11.97;;;;;;;19.34;74.70;100916.16;5289121;28;20036;-73
2023/06/20 03:44:14;;;;;;;14.23;12.73;;;;;;;19.35;74.94;100917.00;5306884;28;20024;-73
2023/06/20 03:46:45;;;;;;;13.23;11.73;;;;;;;19.34;74.97;100921.47;5307388;28;20380;-73
2023/06/20 03:49:16;;;;;;;13.23;11.80;;;;;;;19.52;74.37;100937.38;5306877;28;20063;-73
2023/06/20 03:51:48;;;;;;;12.90;11.70;;;;;;;19.50;73.60;100940.94;5306882;28;20036;-73
2023/06/20 03:54:21;;;;;;;13.73;12.33;;;;;;;19.37;74.60;100942.47;5306262;28;20047;-74
2023/06/20 03:56:52;;;;;;;14.98;12.68;;;;;;;19.35;76.19;100936.38;5288886;28;20040;-74
2023/06/20 03:59:23;;;;;;;12.87;11.57;;;;;;;19.47;75.76;100940.25;5288694;28;20067;-74
2023/06/20 04:01:55;;;;;;;14.93;13.30;;;;;;;19.38;74.54;100943.31;5306622;28;20040;-74
2023/06/20 04:04:26;;;;;;;15.70;12.87;;;;;;;19.57;75.38;100953.88;5306592;28;20099;-74
2023/06/20 04:06:58;;;;;;;17.10;12.67;;;;;;;19.64;74.43;100950.00;5306535;28;20475;-74
2023/06/20 04:09:29;;;;;;;17.23;12.83;;;;;;;19.55;74.29;100951.31;5288498;28;20399;-74
2023/06/20 04:12:01;;;;;;;13.27;11.90;;;;;;;19.72;75.25;100953.13;5306576;28;20028;-74
2023/06/20 04:14:32;;;;;;;13.90;12.50;;;;;;;19.65;75.10;100951.72;5306464;28;20173;-74
2023/06/20 04:17:04;;;;;;;15.97;12.53;;;;;;;19.56;76.36;100941.56;5306420;28;20036;-73
2023/06/20 04:19:36;;;;;;;15.30;13.52;;;;;;;19.60;75.36;100936.06;5306227;28;20020;-74
2023/06/20 04:22:09;;;;;;;13.57;12.18;;;;;;;19.57;75.03;100928.28;5306329;28;20061;-74
2023/06/20 04:24:40;;;;;;;13.23;11.95;;;;;;;19.55;75.09;100932.78;5305867;28;20046;-74
2023/06/20 04:27:12;;;;;;;13.43;11.97;;;;;;;19.64;74.34;100927.06;5306454;28;20032;-74
2023/06/20 04:29:43;;;;;;;15.60;13.57;;;;;;;19.65;74.62;100917.34;5306369;28;20028;-74
2023/06/20 04:32:14;;;;;;;16.10;13.23;;;;;;;19.65;75.17;100914.69;5288126;28;20055;-73
2023/06/20 04:34:46;;;;;;;14.13;12.80;;;;;;;19.70;75.06;100914.47;5306038;28;20044;-74
2023/06/20 04:37:17;;;;;;;14.90;13.50;;;;;;;19.77;74.43;100918.53;5305819;28;20039;-74
2023/06/20 04:39:48;;;;;;;15.00;12.93;;;;;;;19.97;74.89;100915.78;5287721;28;20036;-73
2023/06/20 04:42:20;;;;;;;14.53;13.17;;;;;;;19.94;74.34;100915.94;5305950;28;20101;-75
2023/06/20 04:44:51;;;;;;;16.90;13.30;;;;;;;20.23;73.49;100913.59;5305888;28;20098;-75
2023/06/20 04:47:23;;;;;;;18.50;13.93;;;;;;;20.28;72.13;100911.56;5305890;28;20057;-75
2023/06/20 04:49:54;;;;;;;15.20;13.73;;;;;;;20.39;73.18;100903.91;5284454;28;20075;-75
2023/06/20 04:52:26;;;;;;;17.30;15.00;;;;;;;20.45;71.49;100907.19;5284210;28;20041;-74
2023/06/20 04:55:03;;;;;;;16.47;14.77;;;;;;;20.53;71.52;100897.06;5266204;28;20041;-75
2023/06/20 04:57:35;;;;;;;16.05;14.43;;;;;;;20.64;71.64;100891.22;5284553;28;20028;-75
2023/06/20 05:00:07;;;;;;;16.37;14.63;;;;;;;20.84;71.26;100906.91;5284382;28;20082;-75
2023/06/20 05:02:42;;;;;;;;;;;;;;;21.08;70.57;100911.81;5284694;28;20024;-75
2023/06/20 05:05:13;;;;;;;13.88;12.55;;;;;;;21.21;69.96;100904.03;5284249;28;20351;-75
2023/06/20 05:07:45;;;;;;;14.70;12.97;;;;;;;21.34;70.57;100901.56;5284245;28;20036;-75
2023/06/20 05:10:16;;;;;;;13.60;12.20;;;;;;;21.43;69.80;100898.38;5266422;28;20024;-74
2023/06/20 05:12:48;;;;;;;13.73;12.30;;;;;;;21.56;69.94;100886.19;5266276;28;20115;-75
2023/06/20 05:15:25;;;;;;;12.40;11.20;;;;;;;21.75;69.08;100890.41;5283906;28;20415;-75
2023/06/20 05:17:56;;;;;;;11.80;10.70;;;;;;;22.01;67.70;100883.59;5266307;28;20177;-75
2023/06/20 05:20:28;;;;;;;11.80;9.53;;;;;;;22.18;68.55;100880.75;5284101;28;20542;-75
2023/06/20 05:22:59;;;;;;;10.40;9.07;;;;;;;22.35;68.02;100878.94;5283976;28;20447;-75
2023/06/20 05:25:31;;;;;;;10.70;9.30;;;;;;;22.57;67.26;100879.34;5265341;28;20036;-75
2023/06/20 05:28:03;;;;;;;14.68;9.40;;;;;;;22.70;67.40;100876.75;5283632;28;20052;-75
2023/06/20 05:30:34;;;;;;;9.30;8.40;;;;;;;22.85;66.66;100871.44;5287199;28;20044;-74
2023/06/20 05:33:05;;;;;;;10.13;7.43;;;;;;;23.00;66.19;100870.44;5286919;28;20035;-75
2023/06/20 05:35:37;;;;;;;8.93;7.20;;;;;;;22.93;66.61;100867.34;5304819;28;20028;-75
2023/06/20 05:38:08;;;;;;;9.53;5.50;;;;;;;22.88;67.59;100860.63;5286547;28;20105;-75
2023/06/20 05:40:40;;;;;;;9.43;6.13;;;;;;;22.81;67.67;100857.47;5305181;28;20067;-75
2023/06/20 05:43:11;;;;;;;7.32;5.75;;;;;;;22.88;67.30;100861.47;5286964;28;20028;-75
2023/06/20 05:45:43;;;;;;;8.63;6.40;;;;;;;22.86;67.44;100860.72;5286444;28;20107;-74
2023/06/20 05:48:15;;;;;;;12.43;6.97;;;;;;;22.81;67.62;100861.94;5304661;28;20085;-74
2023/06/20 05:50:47;;;;;;;8.55;6.32;;;;;;;22.77;68.49;100864.78;5304290;28;20055;-73
2023/06/20 05:53:20;;;;;;;8.63;6.32;;;;;;;22.74;68.03;100864.97;5286541;28;20040;-74
2023/06/20 05:55:51;;;;;;;6.97;5.93;;;;;;;22.71;69.11;100869.63;5286237;28;20032;-74
2023/06/20 05:58:23;;;;;;;5.90;5.27;;;;;;;22.67;69.51;100882.28;5304491;28;20035;-74
2023/06/20 06:00:54;;;;;;;7.80;5.00;;;;;;;22.52;70.46;100873.44;5304320;28;20543;-74
2023/06/20 06:03:26;;;;;;;5.30;4.37;;;;;;;22.44;71.02;100875.69;5304273;28;20060;-74
2023/06/20 06:05:57;;;;;;;6.60;4.40;;;;;;;22.42;72.36;100890.03;5286164;28;20032;-74
2023/06/20 06:08:28;;;;;;;6.30;4.30;;;;;;;22.31;71.89;100888.03;5304472;28;20067;-74
2023/06/20 06:11:00;;;;;;;9.77;4.90;;;;;;;22.27;72.22;100889.97;5285962;28;20072;-74
2023/06/20 06:13:32;;;;;;;7.87;4.83;;;;;;;22.37;72.20;100890.31;5286459;28;20063;-75
2023/06/20 06:16:03;;;;;;;6.15;4.47;;;;;;;22.51;71.65;100894.78;5285781;28;20028;-75
2023/06/20 06:18:35;;;;;;;6.15;4.93;;;;;;;22.47;71.86;100887.94;5286317;28;20028;-74
2023/06/20 06:21:07;;;;;;;5.80;4.83;;;;;;;22.45;72.47;100890.69;5304046;28;20032;-75
2023/06/20 06:23:38;;;;;;;7.80;5.55;;;;;;;22.42;72.50;100882.91;5303846;28;20028;-75
2023/06/20 06:26:10;;;;;;;6.43;5.23;;;;;;;22.58;71.35;100882.81;5304039;28;20035;-75
2023/06/20 06:28:41;;;;;;;8.25;5.60;;;;;;;22.64;70.97;100877.13;5304059;28;20028;-75
2023/06/20 06:31:17;;;;;;;6.00;5.40;;;;;;;22.73;71.02;100886.31;5303727;28;20384;-74
2023/06/20 06:33:49;;;;;;;7.97;5.72;;;;;;;22.73;70.74;100881.00;5303873;28;20024;-74
2023/06/20 06:36:22;;;;;;;7.77;5.03;;;;;;;22.72;71.34;100885.50;5303692;28;20047;-74
2023/06/20 06:38:54;;;;;;;8.68;5.78;;;;;;;22.75;70.77;100895.09;5304028;28;20270;-74
2023/06/20 06:41:26;;;;;;;8.32;6.18;;;;;;;22.74;70.39;100891.56;5286115;28;20058;-74
2023/06/20 06:43:58;;;;;;;6.70;6.00;;;;;;;22.66;71.82;100893.00;5303735;28;20024;-74
2023/06/20 06:46:29;;;;;;;13.07;6.38;;;;;;;22.72;71.65;100885.50;5303932;28;20032;-74
2023/06/20 06:49:02;;;;;;;13.50;6.63;;;;;;;22.78;72.05;100889.56;5303861;28;20093;-74
2023/06/20 06:51:34;;;;;;;8.73;6.85;;;;;;;22.86;70.38;100881.09;5303781;28;20471;-75
2023/06/20 06:54:06;;;;;;;6.65;5.82;;;;;;;22.84;70.15;100883.84;5305188;28;20517;-75
2023/06/20 06:56:38;;;;;;;6.30;5.53;;;;;;;22.91;72.07;100885.19;5306993;28;20024;-75
2023/06/20 06:59:09;;;;;;;10.93;5.63;;;;;;;23.16;71.27;100886.31;5307987;28;20054;-74
2023/06/20 07:01:40;;;;;;;6.83;6.13;;;;;;;23.09;69.64;100885.84;5311097;28;20060;-75
2023/06/20 07:04:14;;;;;;;9.90;5.50;;;;;;;23.19;69.65;100894.09;5307165;28;20281;-74
2023/06/20 07:06:45;;;;;;;10.63;5.97;;;;;;;23.24;69.50;100885.81;5303983;28;20111;-73
2023/06/20 07:09:17;;;;;;;7.20;6.17;;;;;;;23.27;69.31;100877.66;5303560;28;20123;-74
2023/06/20 07:11:48;;;;;;;6.13;5.50;;;;;;;23.36;69.01;100886.81;5303748;28;20032;-73
2023/06/20 07:14:20;;;;;;;10.03;5.67;;;;;;;23.45;68.45;100888.91;5306360;28;20032;-76
2023/06/20 07:16:52;;;;;;;12.27;5.47;;;;;;;23.60;68.72;100887.03;5307849;28;20089;-74
2023/06/20 07:19:23;;;;;;;12.90;5.57;;;;;;;23.72;68.22;100883.56;5307737;28;20418;-74
2023/06/20 07:21:54;;;;;;;10.77;6.57;;;;;;;23.79;66.55;100882.19;5307434;28;20036;-75
2023/06/20 07:24:26;;;;;;;7.03;6.33;;;;;;;23.78;67.64;100883.16;5307162;28;20059;-75
2023/06/20 07:26:57;;;;;;;7.23;6.00;;;;;;;23.89;67.31;100870.94;5307245;28;20040;-75
2023/06/20 07:29:29;;;;;;;9.20;6.60;;;;;;;24.12;67.44;100870.25;5307648;28;20028;-74
2023/06/20 07:32:00;;;;;;;6.72;5.93;;;;;;;24.21;67.46;100868.75;5307336;28;20044;-74
2023/06/20 07:34:32;;;;;;;8.00;5.20;;;;;;;24.18;66.95;100860.97;5307501;28;20032;-74
2023/06/20 07:37:03;;;;;;;6.65;5.35;;;;;;;24.29;67.33;100858.41;5307322;28;20024;-74
2023/06/20 07:39:39;;;;;;;6.88;5.32;;;;;;;24.47;67.10;100853.63;5307157;28;20052;-74
2023/06/20 07:42:11;;;;;;;5.30;4.80;;;;;;;24.46;65.73;100846.59;5289280;28;20146;-74
2023/06/20 07:44:42;;;;;;;7.35;5.28;;;;;;;24.51;64.57;100848.94;5288998;28;20124;-74
2023/06/20 07:47:14;;;;;;;6.17;5.53;;;;;;;24.39;63.64;100861.28;5288708;28;20459;-74
2023/06/20 07:49:45;;;;;;;8.80;6.00;;;;;;;24.49;64.68;100866.81;5306921;28;20036;-74
2023/06/20 07:52:16;;;;;;;9.97;6.27;;;;;;;24.60;65.09;100868.78;5288872;28;20456;-74
2023/06/20 07:54:48;;;;;;;6.90;6.13;;;;;;;24.71;64.45;100877.75;5306580;28;20147;-75
2023/06/20 07:57:19;;;;;;;11.05;7.18;;;;;;;24.93;63.81;100885.03;5288929;28;20039;-74
2023/06/20 07:59:51;;;;;;;7.53;6.67;;;;;;;24.99;62.44;100878.41;5306828;28;20031;-75
2023/06/20 08:02:22;;;;;;;10.57;6.85;;;;;;;25.15;63.90;100877.28;5306547;28;20040;-74
2023/06/20 08:04:54;;;;;;;8.37;5.80;;;;;;;25.25;64.02;100873.00;5288484;28;20104;-74
2023/06/20 08:07:25;;;;;;;9.45;6.38;;;;;;;25.40;62.86;100868.38;5306775;28;20625;-75
2023/06/20 08:09:56;;;;;;;6.03;5.43;;;;;;;25.42;62.80;100856.63;5306638;28;20131;-74
2023/06/20 08:12:28;;;;;;;7.70;5.05;;;;;;;25.42;62.62;100864.66;5306543;28;20434;-75
2023/06/20 08:14:59;;;;;;;5.70;5.10;;;;;;;25.21;61.10;100861.72;5288015;28;20043;-74
2023/06/20 08:17:32;;;;;;;5.90;5.30;;;;;;;25.45;61.51;100864.41;5288473;28;20117;-74
2023/06/20 08:20:06;;;;;;;5.72;4.80;;;;;;;25.73;62.97;100867.69;5306185;28;20028;-74
2023/06/20 08:22:37;;;;;;;7.65;5.55;;;;;;;25.73;60.34;100859.66;5306302;28;20036;-74
2023/06/20 08:25:09;;;;;;;6.78;4.80;;;;;;;25.73;59.48;100865.00;5305299;28;20038;-74
2023/06/20 08:27:40;;;;;;;9.43;4.82;;;;;;;25.82;60.24;100855.44;5306192;28;20036;-74
2023/06/20 08:30:12;;;;;;;8.02;5.03;;;;;;;25.79;59.00;100869.88;5306016;28;20119;-75
2023/06/20 08:32:44;;;;;;;7.90;4.70;;;;;;;25.92;59.24;100860.91;5306290;28;20024;-75
2023/06/20 08:35:15;;;;;;;6.97;5.25;;;;;;;25.90;60.03;100865.53;5305812;28;20440;-75
2023/06/20 08:37:48;;;;;;;6.35;4.22;;;;;;;26.05;59.90;100867.06;5305938;28;20140;-75
2023/06/20 08:40:19;;;;;;;;;;;;;;;26.33;58.60;100867.59;5306276;28;20141;-76
2023/06/20 08:42:54;;;;;;;5.47;4.83;;;;;;;25.95;59.00;100856.22;5287876;28;20337;-75
2023/06/20 08:45:27;;;;;;;6.22;5.05;;;;;;;26.09;60.18;100863.19;5305831;28;20035;-75
2023/06/20 08:47:58;;;;;;;7.38;4.85;;;;;;;26.34;60.16;100863.94;5305637;28;20078;-75
2023/06/20 08:50:30;;;;;;;5.38;4.20;;;;;;;26.51;57.82;100862.63;5305889;28;20117;-76
2023/06/20 08:53:04;;;;;;;6.57;4.22;;;;;;;26.77;57.19;100865.09;5305861;28;20032;-76
2023/06/20 08:55:39;;;;;;;4.80;4.28;;;;;;;26.83;57.95;100852.06;5305207;28;20032;-75
2023/06/20 08:58:11;;;;;;;8.23;4.50;;;;;;;26.97;57.38;100852.75;5305615;28;20032;-75
2023/06/20 09:00:45;;;;;;;4.80;4.10;;;;;;;27.11;54.36;100842.66;5305443;28;20043;-76
2023/06/20 09:03:16;;;;;;;6.82;4.53;;;;;;;27.29;56.76;100851.00;5305810;28;20029;-75
2023/06/20 09:05:48;;;;;;;;;;;;;;;27.67;55.76;100856.00;5287672;28;20325;-76
2023/06/20 09:08:19;;;;;;;5.53;4.25;;;;;;;27.01;54.83;100852.41;5305369;28;19948;-76
2023/06/20 09:11:05;;;;;;;5.38;4.38;;;;;;;27.40;56.09;100850.16;5305311;28;20020;-75
2023/06/20 09:13:37;;;;;;;5.47;4.60;;;;;;;27.28;53.61;100854.63;5305688;28;20394;-74
2023/06/20 09:16:11;;;;;;;7.82;4.80;;;;;;;26.96;54.67;100867.13;5305754;28;20032;-77
2023/06/20 09:18:42;;;;;;;5.35;4.80;;;;;;;27.08;54.61;100860.78;5288167;28;20028;-76
2023/06/20 09:21:14;;;;;;;;;;;;;;;27.51;53.93;100851.06;5307502;28;20090;-76
2023/06/20 09:23:45;;;;;;;5.38;4.03;;;;;;;27.25;55.07;100865.59;5289745;28;19912;-77
2023/06/20 09:26:17;;;;;;;;;;;;;;;27.57;53.77;100869.31;5315371;28;20050;-76
2023/06/20 09:28:49;;;;;;;4.95;4.22;;;;;;;27.57;53.60;100874.66;5317166;28;19912;-78
2023/06/20 09:31:20;;;;;;;;;;;;;;;27.94;53.12;100874.28;5308848;28;20415;-76
2023/06/20 09:33:52;;;;;;;4.60;3.58;;;;;;;27.27;53.91;100868.16;5305477;28;19916;-75
2023/06/20 09:36:24;;;;;;;6.85;4.07;;;;;;;27.16;53.40;100866.38;5304325;28;20332;-75
2023/06/20 09:38:56;;;;;;;;;;;;;;;27.72;52.75;100868.00;5305401;28;20090;-75
2023/06/20 09:41:28;;;;;;;4.82;4.15;;;;;;;27.63;53.40;100871.47;5304772;28;19972;-76
2023/06/20 09:43:59;;;;;;;;;;;;;;;28.29;51.60;100868.56;5305068;28;20043;-75
2023/06/20 09:46:30;;;;;;;6.90;4.53;;;;;;;27.91;51.40;100872.66;5304476;28;20003;-75
2023/06/20 09:49:03;;;;;;;;;;;;;;;28.44;49.45;100873.56;5304854;28;20074;-77
2023/06/20 09:51:41;;;;;;;6.05;3.67;;;;;;;28.01;50.43;100864.72;5304384;28;19912;-77
2023/06/20 09:54:15;;;;;;;7.72;4.65;;;;;;;28.01;51.77;100862.91;5304113;28;20422;-76
2023/06/20 09:56:50;;;;;;;5.47;4.18;;;;;;;28.14;50.48;100860.03;5304230;28;20036;-76
2023/06/20 09:59:26;;;;;;;4.32;3.83;;;;;;;28.25;51.02;100858.22;5304485;28;20101;-76
2023/06/20 10:01:59;;;;;;;7.43;4.43;;;;;;;28.17;51.18;100859.72;5304525;28;20060;-76
2023/06/20 10:04:31;;;;;;;6.30;3.65;;;;;;;28.01;48.71;100865.59;5286281;28;20125;-75
2023/06/20 10:07:04;;;;;;;5.90;3.90;;;;;;;27.90;49.11;100870.09;5304238;28;20111;-74
2023/06/20 10:09:36;;;;;;;4.57;3.15;;;;;;;28.49;48.64;100871.34;5286354;28;20036;-75
2023/06/20 10:12:08;;;;;;;;;;;;;;;29.61;45.46;100866.69;5286346;28;20036;-77
2023/06/20 10:14:40;;;;;;;5.95;3.60;;;;;;;30.30;42.69;100853.16;5304488;28;19960;-76
2023/06/20 10:17:15;;;;;;;;;;;;;;;32.37;39.56;100856.94;5304781;28;20032;-77
2023/06/20 10:19:51;;;;;;;7.30;3.00;;;;;;;33.05;36.81;100851.50;5303926;28;19916;-77
2023/06/20 10:22:41;;;;;;;8.93;3.80;;;;;;;34.25;35.84;100842.09;5286302;28;20043;-77
2023/06/20 10:25:15;;;;;;;6.53;3.03;;;;;;;34.16;34.15;100839.34;5303604;28;20059;-78
2023/06/20 10:28:01;;;;;;;3.72;2.85;;;;;;;34.90;34.62;100834.72;5303820;28;20146;-76
2023/06/20 10:30:52;;;;;;;4.07;2.90;;;;;;;35.74;33.99;100826.63;5303703;28;20451;-76
2023/06/20 10:33:30;;;;;;;3.15;2.83;;;;;;;35.95;32.01;100820.53;5304270;28;20417;-76
2023/06/20 10:36:10;;;;;;;3.58;2.90;;;;;;;36.46;29.80;100811.66;5304036;28;20140;-77
2023/06/20 10:38:50;;;;;;;3.45;2.92;;;;;;;36.61;31.19;100822.47;5304036;28;20378;-76
2023/06/20 10:41:23;;;;;;;3.15;2.67;;;;;;;36.27;30.65;100811.19;5303960;28;20032;-77
2023/06/20 10:43:56;;;;;;;3.70;3.30;;;;;;;36.36;29.82;100806.53;5303815;28;20028;-76
2023/06/20 10:46:36;;;;;;;6.78;2.90;;;;;;;36.99;29.79;100806.03;5303851;28;20035;-76
2023/06/20 10:49:09;;;;;;;3.40;3.10;;;;;;;37.41;28.18;100798.91;5289782;28;20035;-76
2023/06/20 10:51:45;;;;;;;5.28;2.70;;;;;;;37.73;27.04;100805.66;5308081;28;20039;-76
2023/06/20 10:54:18;;;;;;;4.70;2.90;;;;;;;37.70;26.78;100810.66;5307657;28;20049;-76
2023/06/20 10:56:49;;;;;;;6.43;2.95;;;;;;;37.41;26.49;100799.75;5307941;28;20139;-76
2023/06/20 10:59:21;;;;;;;5.50;2.92;;;;;;;37.85;27.31;100802.41;5307750;28;20028;-76
2023/06/20 11:01:52;;;;;;;3.25;2.50;;;;;;;37.78;25.73;100798.81;5308076;28;20032;-77
2023/06/20 11:04:24;;;;;;;6.25;3.17;;;;;;;35.46;27.74;100792.00;5308031;28;20471;-79
2023/06/20 11:06:56;;;;;;;4.88;3.17;;;;;;;35.14;29.71;100780.38;5307770;28;20036;-78
2023/06/20 11:09:27;;;;;;;7.43;3.50;;;;;;;33.53;32.06;100775.25;5307779;28;20047;-77
2023/06/20 11:11:59;;;;;;;7.80;3.22;;;;;;;34.61;32.48;100771.22;5307458;28;20037;-76
2023/06/20 11:14:30;;;;;;;5.35;2.90;;;;;;;35.87;29.70;100771.78;5308102;28;20032;-77
2023/06/20 11:17:01;;;;;;;3.30;2.55;;;;;;;36.96;26.77;100771.09;5307642;28;20064;-77
2023/06/20 11:19:33;;;;;;;3.70;3.00;;;;;;;36.71;27.19;100779.59;5307807;28;20035;-78
2023/06/20 11:22:05;;;;;;;4.80;2.90;;;;;;;36.89;27.53;100762.00;5307373;28;20051;-76
2023/06/20 11:24:36;;;;;;;2.88;2.67;;;;;;;37.07;26.45;100764.31;5306972;28;20459;-78
2023/06/20 11:27:14;;;;;;;3.55;2.53;;;;;;;37.12;27.11;100753.69;5307456;28;20194;-77
2023/06/20 11:29:46;;;;;;;5.40;3.00;;;;;;;37.70;25.74;100751.66;5307423;28;20164;-77
2023/06/20 11:32:17;;;;;;;6.72;2.97;;;;;;;38.46;24.30;100758.94;5307057;28;20084;-77
2023/06/20 11:34:59;;;;;;;3.45;2.90;;;;;;;38.41;24.31;100768.78;5307274;28;20031;-78
2023/06/20 11:37:30;;;;;;;5.30;3.08;;;;;;;39.86;23.21;100765.59;5307832;28;20039;-77
2023/06/20 11:40:10;;;;;;;3.13;2.60;;;;;;;39.00;23.84;100765.41;5308647;28;20421;-75
2023/06/20 11:42:42;;;;;;;4.05;3.05;;;;;;;39.63;23.29;100761.44;5308016;28;20493;-78
2023/06/20 11:45:13;;;;;;;4.07;2.88;;;;;;;39.87;22.53;100770.84;5307773;28;20028;-77
2023/06/20 11:47:45;;;;;;;3.83;3.20;;;;;;;39.63;23.03;100769.63;5307241;28;20028;-77
2023/06/20 11:50:23;;;;;;;3.58;3.17;;;;;;;36.64;26.54;100756.94;5311014;28;20107;-77